Time;durP1;ratioP1;P1;durP2;ratioP2;P2;SDS_P1;SDS_P2;PMS_P1;PMS_P2;Temp;Humidity;BMP_temperature;BMP_pressure;BME280_temperature;BME280_humidity;BME280_pressure;Samples;Min_cycle;Max_cycle;Signal;HPM_P1;HPM_P2
2021/07/08 00:02:12;;;;;;;;;;;19.50;99.90;;;;;;4986875;28;20018;-52
2021/07/08 00:04:37;;;;;;;;;;;19.40;99.90;;;;;;4987107;28;19990;-52
2021/07/08 00:07:04;;;;;;;;;;;19.40;99.90;;;;;;4986387;28;20157;-51
2021/07/08 00:09:30;;;;;;;;;;;19.50;99.90;;;;;;4984432;28;20416;-53
2021/07/08 00:11:55;;;;;;;;;;;19.50;99.90;;;;;;4985145;28;19990;-51
2021/07/08 00:14:21;;;;;;;;;;;19.40;99.90;;;;;;4986208;28;20044;-51
2021/07/08 00:16:46;;;;;;;;;;;19.40;99.90;;;;;;4986513;28;19995;-51
2021/07/08 00:19:12;;;;;;;;;;;19.50;99.90;;;;;;4986244;28;19986;-53
2021/07/08 00:21:39;;;;;;;;;;;19.50;99.90;;;;;;4986186;28;20040;-53
2021/07/08 00:24:06;;;;;;;;;;;19.40;99.90;;;;;;4985718;28;20440;-49
2021/07/08 00:26:31;;;;;;;;;;;19.30;99.90;;;;;;4986435;28;20388;-53
2021/07/08 00:28:57;;;;;;;;;;;19.20;99.90;;;;;;4986379;28;19998;-55
2021/07/08 00:31:22;;;;;;;;;;;19.00;99.90;;;;;;4985765;28;19995;-51
2021/07/08 00:33:48;;;;;;;;;;;19.00;99.90;;;;;;4986293;28;19997;-53
2021/07/08 00:36:14;;;;;;;;;;;18.80;99.90;;;;;;4986705;28;20098;-52
2021/07/08 00:38:39;;;;;;;;;;;18.70;99.90;;;;;;4986082;28;20006;-52
2021/07/08 00:41:05;;;;;;;;;;;18.60;99.90;;;;;;4986162;28;20492;-52
2021/07/08 00:43:32;;;;;;;;;;;18.60;99.90;;;;;;4985755;28;20034;-52
2021/07/08 00:45:58;;;;;;;;;;;18.50;99.90;;;;;;4986114;28;20036;-52
2021/07/08 00:48:23;;;;;;;;;;;18.60;99.90;;;;;;4986357;28;19990;-49
2021/07/08 00:50:49;;;;;;;;;;;18.60;99.90;;;;;;4986318;28;19991;-52
2021/07/08 00:53:19;;;;;;;;;;;18.70;99.90;;;;;;4985592;28;20484;-52
2021/07/08 00:55:53;;;;;;;;;;;18.80;99.90;;;;;;4986793;28;19994;-52
2021/07/08 00:58:18;;;;;;;;;;;18.70;99.90;;;;;;4985892;28;20452;-52
2021/07/08 01:00:44;;;;;;;;;;;18.60;99.90;;;;;;4987116;28;20011;-50
2021/07/08 01:03:12;;;;;;;;;;;18.60;99.90;;;;;;4985346;28;20452;-53
2021/07/08 01:05:39;;;;;;;;;;;18.80;99.90;;;;;;4986259;28;20431;-52
2021/07/08 01:08:05;;;;;;;;;;;18.90;99.90;;;;;;4985909;28;20023;-51
2021/07/08 01:10:31;;;;;;;;;;;18.80;99.90;;;;;;4986053;28;19987;-52
2021/07/08 01:12:57;;;;;;;;;;;18.90;99.90;;;;;;4985570;28;19998;-51
2021/07/08 01:15:23;;;;;;;;;;;18.80;99.90;;;;;;4985635;28;20077;-52
2021/07/08 01:17:50;;;;;;;;;;;18.60;99.90;;;;;;4985405;28;19994;-50
2021/07/08 01:20:20;;;;;;;;;;;18.50;99.90;;;;;;4986423;28;19986;-52
2021/07/08 01:22:48;;;;;;;;;;;18.40;99.90;;;;;;4986210;28;20124;-52
2021/07/08 01:25:14;;;;;;;;;;;18.50;99.90;;;;;;4986232;28;19998;-52
2021/07/08 01:27:40;;;;;;;;;;;18.30;99.90;;;;;;4985562;28;19994;-53
2021/07/08 01:30:07;;;;;;;;;;;18.40;99.90;;;;;;4985257;28;19987;-52
2021/07/08 01:32:34;;;;;;;;;;;18.40;99.90;;;;;;4985638;28;19998;-51
2021/07/08 01:35:00;;;;;;;;;;;18.30;99.90;;;;;;4986764;28;19987;-51
2021/07/08 01:37:26;;;;;;;;;;;18.40;99.90;;;;;;4989319;28;19986;-51
2021/07/08 01:39:51;;;;;;;;;;;18.40;99.90;;;;;;4993678;28;20033;-52
2021/07/08 01:42:17;;;;;;;;;;;18.40;99.90;;;;;;5009019;28;20060;-48
2021/07/08 01:44:42;;;;;;;;;;;18.50;99.90;;;;;;5008051;28;20060;-51
2021/07/08 01:47:08;;;;;;;;;;;18.80;99.90;;;;;;5008457;28;19990;-51
2021/07/08 01:49:34;;;;;;;;;;;18.90;99.90;;;;;;5008573;28;19990;-50
2021/07/08 01:51:59;;;;;;;;;;;18.90;99.90;;;;;;5008755;28;19990;-52
2021/07/08 01:54:26;;;;;;;;;;;18.90;99.90;;;;;;5008451;28;20004;-51
2021/07/08 01:56:51;;;;;;;;;;;18.90;99.90;;;;;;5008208;28;20531;-53
2021/07/08 01:59:17;;;;;;;;;;;18.90;99.90;;;;;;5008913;28;20109;-53
2021/07/08 02:01:42;;;;;;;;;;;18.90;99.90;;;;;;5008709;28;20128;-52
2021/07/08 02:04:08;;;;;;;;;;;18.80;99.90;;;;;;5006893;28;19993;-51
2021/07/08 02:06:34;;;;;;;;;;;18.80;99.90;;;;;;5008418;28;19991;-53
2021/07/08 02:08:59;;;;;;;;;;;18.80;99.90;;;;;;5008037;28;20474;-53
2021/07/08 02:11:25;;;;;;;;;;;18.80;99.90;;;;;;4990056;28;19991;-53
2021/07/08 02:13:51;;;;;;;;;;;18.60;99.90;;;;;;4989015;28;20073;-51
2021/07/08 02:16:18;;;;;;;;;;;18.60;99.90;;;;;;4986486;28;20003;-50
2021/07/08 02:18:44;;;;;;;;;;;18.60;99.90;;;;;;4988787;28;19994;-52
2021/07/08 02:21:11;;;;;;;;;;;18.70;99.90;;;;;;4988280;28;20156;-53
2021/07/08 02:23:37;;;;;;;;;;;18.70;99.90;;;;;;4988544;28;19990;-54
2021/07/08 02:26:05;;;;;;;;;;;18.70;99.90;;;;;;4988003;28;20045;-54
2021/07/08 02:28:30;;;;;;;;;;;18.60;99.90;;;;;;4988222;28;19994;-53
2021/07/08 02:30:56;;;;;;;;;;;18.60;99.90;;;;;;4988382;28;19986;-53
2021/07/08 02:33:22;;;;;;;;;;;18.60;99.90;;;;;;4988149;28;20013;-54
2021/07/08 02:35:47;;;;;;;;;;;18.40;99.90;;;;;;4989043;28;20085;-53
2021/07/08 02:38:13;;;;;;;;;;;18.40;99.90;;;;;;4987619;28;19998;-54
2021/07/08 02:40:38;;;;;;;;;;;18.50;99.90;;;;;;4988023;28;20001;-55
2021/07/08 02:43:05;;;;;;;;;;;18.40;99.90;;;;;;4987777;28;20555;-54
2021/07/08 02:45:31;;;;;;;;;;;18.40;99.90;;;;;;4988301;28;20009;-55
2021/07/08 02:47:59;;;;;;;;;;;18.40;99.90;;;;;;4987846;28;19994;-54
2021/07/08 02:50:25;;;;;;;;;;;18.30;99.90;;;;;;4988326;28;20080;-54
2021/07/08 02:52:51;;;;;;;;;;;18.30;99.90;;;;;;4987849;28;20390;-54
2021/07/08 02:55:17;;;;;;;;;;;18.40;99.90;;;;;;4988302;28;20670;-54
2021/07/08 02:57:45;;;;;;;;;;;18.40;99.90;;;;;;4987890;28;20488;-54
2021/07/08 03:00:13;;;;;;;;;;;18.40;99.90;;;;;;4987704;28;20067;-50
2021/07/08 03:02:39;;;;;;;;;;;18.40;99.90;;;;;;4987532;28;20010;-54
2021/07/08 03:05:06;;;;;;;;;;;18.50;99.90;;;;;;4987542;28;20077;-52
2021/07/08 03:07:32;;;;;;;;;;;18.40;99.90;;;;;;4987647;28;20117;-52
2021/07/08 03:09:58;;;;;;;;;;;18.30;99.90;;;;;;4987468;28;19986;-49
2021/07/08 03:12:26;;;;;;;;;;;18.30;99.90;;;;;;4987662;28;20021;-54
2021/07/08 03:14:51;;;;;;;;;;;18.30;99.90;;;;;;4987506;28;20089;-51
2021/07/08 03:17:17;;;;;;;;;;;18.40;99.90;;;;;;5002755;28;20532;-53
2021/07/08 03:19:42;;;;;;;;;;;18.40;99.90;;;;;;4987591;28;20178;-52
2021/07/08 03:22:08;;;;;;;;;;;18.30;99.90;;;;;;4986681;28;20006;-53
2021/07/08 03:24:34;;;;;;;;;;;18.20;99.90;;;;;;4987402;28;20012;-54
2021/07/08 03:26:59;;;;;;;;;;;18.20;99.90;;;;;;4986784;28;20106;-53
2021/07/08 03:29:25;;;;;;;;;;;18.10;99.90;;;;;;4987525;28;20041;-54
2021/07/08 03:31:51;;;;;;;;;;;18.10;99.90;;;;;;4987313;28;20218;-53
2021/07/08 03:34:18;;;;;;;;;;;18.10;99.90;;;;;;4987555;28;19994;-51
2021/07/08 03:36:44;;;;;;;;;;;18.30;99.90;;;;;;4987269;28;19991;-54
2021/07/08 03:39:10;;;;;;;;;;;18.20;99.90;;;;;;4986550;28;19991;-53
2021/07/08 03:41:36;;;;;;;;;;;18.30;99.90;;;;;;4987105;28;20036;-52
2021/07/08 03:44:01;;;;;;;;;;;18.30;99.90;;;;;;4986755;28;19990;-54
2021/07/08 03:46:27;;;;;;;;;;;18.30;99.90;;;;;;4987039;28;19990;-53
2021/07/08 03:48:52;;;;;;;;;;;18.30;99.90;;;;;;4987037;28;20453;-53
2021/07/08 03:51:18;;;;;;;;;;;18.30;99.90;;;;;;4987024;28;19993;-52
2021/07/08 03:53:44;;;;;;;;;;;18.30;99.90;;;;;;4986555;28;20468;-52
2021/07/08 03:56:09;;;;;;;;;;;18.30;99.90;;;;;;4986530;28;20006;-53
2021/07/08 03:58:36;;;;;;;;;;;18.30;99.90;;;;;;4985991;28;19987;-54
2021/07/08 04:01:02;;;;;;;;;;;18.30;99.90;;;;;;4986639;28;20011;-54
2021/07/08 04:03:27;;;;;;;;;;;18.20;99.90;;;;;;4984816;28;20393;-52
2021/07/08 04:05:53;;;;;;;;;;;18.30;99.90;;;;;;4986751;28;20013;-54
2021/07/08 04:08:18;;;;;;;;;;;18.10;99.90;;;;;;4986966;28;20303;-53
2021/07/08 04:10:44;;;;;;;;;;;18.00;99.90;;;;;;4986907;28;20001;-51
2021/07/08 04:13:11;;;;;;;;;;;18.00;99.90;;;;;;4986206;28;19986;-54
2021/07/08 04:15:37;;;;;;;;;;;18.00;99.90;;;;;;4986516;28;19991;-54
2021/07/08 04:18:03;;;;;;;;;;;18.10;99.90;;;;;;4986439;28;19987;-54
2021/07/08 04:20:29;;;;;;;;;;;18.00;99.90;;;;;;4986561;28;20488;-52
2021/07/08 04:22:55;;;;;;;;;;;18.00;99.90;;;;;;4986490;28;19997;-54
2021/07/08 04:25:20;;;;;;;;;;;18.10;99.90;;;;;;4986496;28;20001;-52
2021/07/08 04:27:46;;;;;;;;;;;18.10;99.90;;;;;;4987144;28;20457;-54
2021/07/08 04:30:15;;;;;;;;;;;18.10;99.90;;;;;;5001171;28;20383;-53
2021/07/08 04:32:40;;;;;;;;;;;18.10;99.90;;;;;;4986156;28;20030;-54
2021/07/08 04:35:07;;;;;;;;;;;18.10;99.90;;;;;;4986143;28;20034;-54
2021/07/08 04:37:40;;;;;;;;;;;18.10;99.90;;;;;;4986225;28;19998;-53
2021/07/08 04:40:06;;;;;;;;;;;18.10;99.90;;;;;;4985186;28;20057;-52
2021/07/08 04:42:32;;;;;;;;;;;18.10;99.90;;;;;;4986082;28;20014;-51
2021/07/08 04:44:57;;;;;;;;;;;18.10;99.90;;;;;;4985952;28;19994;-53
2021/07/08 04:47:23;;;;;;;;;;;18.20;99.90;;;;;;4986374;28;19998;-54
2021/07/08 04:49:48;;;;;;;;;;;18.20;99.90;;;;;;4986665;28;20013;-53
2021/07/08 04:52:14;;;;;;;;;;;18.20;99.90;;;;;;4985228;28;20005;-52
2021/07/08 04:54:39;;;;;;;;;;;18.00;99.90;;;;;;4985997;28;20006;-52
2021/07/08 04:57:05;;;;;;;;;;;18.10;99.90;;;;;;4985904;28;19986;-53
2021/07/08 04:59:32;;;;;;;;;;;18.20;99.90;;;;;;4984635;28;20514;-51
2021/07/08 05:01:57;;;;;;;;;;;18.20;99.90;;;;;;4985942;28;20013;-54
2021/07/08 05:04:24;;;;;;;;;;;18.30;99.90;;;;;;4985930;28;20372;-52
2021/07/08 05:06:49;;;;;;;;;;;18.30;99.90;;;;;;4986679;28;20459;-54
2021/07/08 05:09:15;;;;;;;;;;;18.40;99.90;;;;;;4984378;28;20037;-53
2021/07/08 05:11:42;;;;;;;;;;;18.40;99.90;;;;;;4991017;28;20001;-53
2021/07/08 05:14:08;;;;;;;;;;;18.20;99.90;;;;;;4991303;28;19994;-53
2021/07/08 05:16:33;;;;;;;;;;;18.30;99.90;;;;;;4991127;28;19998;-52
2021/07/08 05:18:59;;;;;;;;;;;18.30;99.90;;;;;;4990399;28;20026;-54
2021/07/08 05:21:24;;;;;;;;;;;18.40;99.90;;;;;;4989574;28;20014;-53
2021/07/08 05:23:52;;;;;;;;;;;18.40;99.90;;;;;;4990354;28;19990;-54
2021/07/08 05:26:18;;;;;;;;;;;18.40;99.90;;;;;;4991085;28;20001;-54
2021/07/08 05:28:43;;;;;;;;;;;18.50;99.90;;;;;;4990936;28;20081;-54
2021/07/08 05:31:09;;;;;;;;;;;18.50;99.90;;;;;;4972674;28;20657;-53
2021/07/08 05:33:35;;;;;;;;;;;18.50;99.90;;;;;;4971564;28;19994;-53
2021/07/08 05:36:00;;;;;;;;;;;18.50;99.90;;;;;;4971375;28;19995;-54
2021/07/08 05:38:26;;;;;;;;;;;18.50;99.90;;;;;;4971364;28;19994;-54
2021/07/08 05:40:51;;;;;;;;;;;18.50;99.90;;;;;;4971149;28;20010;-52
2021/07/08 05:43:17;;;;;;;;;;;18.60;99.90;;;;;;4971777;28;20001;-54
2021/07/08 05:45:42;;;;;;;;;;;18.60;99.90;;;;;;4989839;28;20043;-54
2021/07/08 05:48:08;;;;;;;;;;;18.60;99.90;;;;;;4990482;28;19990;-53
2021/07/08 05:50:34;;;;;;;;;;;18.60;99.90;;;;;;4990406;28;19995;-54
2021/07/08 05:52:59;;;;;;;;;;;18.70;99.90;;;;;;4990306;28;20480;-54
2021/07/08 05:55:25;;;;;;;;;;;18.80;99.90;;;;;;4990470;28;20037;-54
2021/07/08 05:57:51;;;;;;;;;;;18.80;99.90;;;;;;4990768;28;20049;-55
2021/07/08 06:00:18;;;;;;;;;;;18.60;99.90;;;;;;4989550;28;20453;-53
2021/07/08 06:02:45;;;;;;;;;;;18.70;99.90;;;;;;4988886;28;20018;-53
2021/07/08 06:05:11;;;;;;;;;;;18.70;99.90;;;;;;4988466;28;20720;-54
2021/07/08 06:07:36;;;;;;;;;;;18.70;99.90;;;;;;4988933;28;20026;-53
2021/07/08 06:10:06;;;;;;;;;;;18.70;99.90;;;;;;4987127;28;20465;-54
2021/07/08 06:12:31;;;;;;;;;;;18.60;99.90;;;;;;4989287;28;20492;-54
2021/07/08 06:14:57;;;;;;;;;;;18.50;99.90;;;;;;4989404;28;20006;-54
2021/07/08 06:17:23;;;;;;;;;;;18.50;99.90;;;;;;4990215;28;19987;-52
2021/07/08 06:19:49;;;;;;;;;;;18.60;99.90;;;;;;4990742;28;20003;-53
2021/07/08 06:22:16;;;;;;;;;;;18.60;99.90;;;;;;4987859;28;20404;-53
2021/07/08 06:24:43;;;;;;;;;;;18.60;99.90;;;;;;4988572;28;19987;-52
2021/07/08 06:27:08;;;;;;;;;;;18.60;99.90;;;;;;5003250;28;19998;-54
2021/07/08 06:29:35;;;;;;;;;;;18.60;99.90;;;;;;4988660;28;20377;-53
2021/07/08 06:32:01;;;;;;;;;;;18.50;99.90;;;;;;4988116;28;20499;-54
2021/07/08 06:34:26;;;;;;;;;;;18.60;99.90;;;;;;4988056;28;19995;-54
2021/07/08 06:36:52;;;;;;;;;;;18.70;99.90;;;;;;4988339;28;20364;-54
2021/07/08 06:39:17;;;;;;;;;;;18.60;99.90;;;;;;4988033;28;20001;-55
2021/07/08 06:41:43;;;;;;;;;;;18.60;99.90;;;;;;4988542;28;20169;-53
2021/07/08 06:44:09;;;;;;;;;;;18.40;99.90;;;;;;4987527;28;20491;-53
2021/07/08 06:46:35;;;;;;;;;;;18.60;99.90;;;;;;4988662;28;20504;-54
2021/07/08 06:49:01;;;;;;;;;;;18.60;99.90;;;;;;4987870;28;19991;-53
2021/07/08 06:51:27;;;;;;;;;;;18.70;99.90;;;;;;4988168;28;19998;-53
2021/07/08 06:53:54;;;;;;;;;;;18.80;99.90;;;;;;4987724;28;20005;-53
2021/07/08 06:56:19;;;;;;;;;;;18.70;99.90;;;;;;4987920;28;19991;-51
2021/07/08 06:58:45;;;;;;;;;;;18.80;99.90;;;;;;4988383;28;20474;-54
2021/07/08 07:01:11;;;;;;;;;;;18.80;99.90;;;;;;4987573;28;20034;-52
2021/07/08 07:03:36;;;;;;;;;;;18.70;99.90;;;;;;4987486;28;20472;-53
2021/07/08 07:06:02;;;;;;;;;;;18.80;99.90;;;;;;4987697;28;19990;-55
2021/07/08 07:08:28;;;;;;;;;;;18.80;99.90;;;;;;4987705;28;19986;-54
2021/07/08 07:10:53;;;;;;;;;;;18.60;99.90;;;;;;4987626;28;19998;-52
2021/07/08 07:13:20;;;;;;;;;;;18.80;99.90;;;;;;4987427;28;19998;-53
2021/07/08 07:15:45;;;;;;;;;;;18.60;99.90;;;;;;4988082;28;19986;-52
2021/07/08 07:18:11;;;;;;;;;;;18.80;99.90;;;;;;4987360;28;19990;-54
2021/07/08 07:20:36;;;;;;;;;;;18.80;99.90;;;;;;4987376;28;19990;-54
2021/07/08 07:23:02;;;;;;;;;;;18.70;99.90;;;;;;4987239;28;19987;-53
2021/07/08 07:25:28;;;;;;;;;;;18.90;99.90;;;;;;4987290;28;19986;-53
2021/07/08 07:27:54;;;;;;;;;;;18.90;99.90;;;;;;4987284;28;20089;-52
2021/07/08 07:30:21;;;;;;;;;;;18.80;99.90;;;;;;4987417;28;19991;-54
2021/07/08 07:32:47;;;;;;;;;;;18.70;99.90;;;;;;4987851;28;19990;-50
2021/07/08 07:35:12;;;;;;;;;;;18.60;99.90;;;;;;4986757;28;19987;-52
2021/07/08 07:37:38;;;;;;;;;;;18.60;99.90;;;;;;4985474;28;20023;-51
2021/07/08 07:40:04;;;;;;;;;;;18.70;99.90;;;;;;4986041;28;19998;-53
2021/07/08 07:42:30;;;;;;;;;;;18.70;99.90;;;;;;4985590;28;20381;-51
2021/07/08 07:44:55;;;;;;;;;;;18.60;99.90;;;;;;4986670;28;19994;-52
2021/07/08 07:47:21;;;;;;;;;;;18.60;99.90;;;;;;4986536;28;20440;-54
2021/07/08 07:49:46;;;;;;;;;;;18.40;99.90;;;;;;4987706;28;20077;-52
2021/07/08 07:52:13;;;;;;;;;;;18.40;99.90;;;;;;4986817;28;20465;-53
2021/07/08 07:54:39;;;;;;;;;;;18.40;99.90;;;;;;4986660;28;20049;-52
2021/07/08 07:57:05;;;;;;;;;;;18.40;99.90;;;;;;4986384;28;19990;-53
2021/07/08 07:59:32;;;;;;;;;;;18.20;99.90;;;;;;4986740;28;19987;-53
2021/07/08 08:01:58;;;;;;;;;;;18.20;99.90;;;;;;4986614;28;20496;-53
2021/07/08 08:04:28;;;;;;;;;;;18.10;99.90;;;;;;4986609;28;20455;-53
2021/07/08 08:09:38;;;;;;;;;;;18.10;99.90;;;;;;4987113;28;20033;-53
2021/07/08 08:12:03;;;;;;;;;;;18.10;99.90;;;;;;4985598;28;19998;-50
2021/07/08 08:14:29;;;;;;;;;;;18.00;99.90;;;;;;4987419;28;20002;-54
2021/07/08 08:16:55;;;;;;;;;;;18.10;99.90;;;;;;4986218;28;20040;-52
2021/07/08 08:19:21;;;;;;;;;;;18.40;99.90;;;;;;4986229;28;20085;-53
2021/07/08 08:21:46;;;;;;;;;;;18.50;99.90;;;;;;4985882;28;20105;-52
2021/07/08 08:24:12;;;;;;;;;;;18.40;99.90;;;;;;4986501;28;19993;-52
2021/07/08 08:26:37;;;;;;;;;;;18.20;99.90;;;;;;4986352;28;19987;-53
2021/07/08 08:29:03;;;;;;;;;;;18.30;99.90;;;;;;4986336;28;19990;-53
2021/07/08 08:31:28;;;;;;;;;;;18.20;99.90;;;;;;4986467;28;20499;-49
2021/07/08 08:33:55;;;;;;;;;;;18.10;99.90;;;;;;4986040;28;20026;-53
2021/07/08 08:36:21;;;;;;;;;;;18.20;99.90;;;;;;4985544;28;20150;-50
2021/07/08 08:38:46;;;;;;;;;;;18.30;99.90;;;;;;4985370;28;19991;-53
2021/07/08 08:41:12;;;;;;;;;;;18.20;99.90;;;;;;4986459;28;20289;-53
2021/07/08 08:43:39;;;;;;;;;;;18.30;99.90;;;;;;4985591;28;20036;-53
2021/07/08 08:46:04;;;;;;;;;;;18.20;99.90;;;;;;4985302;28;19998;-53
2021/07/08 08:48:30;;;;;;;;;;;18.30;99.90;;;;;;4986738;28;19991;-52
2021/07/08 08:50:56;;;;;;;;;;;18.20;99.90;;;;;;4986301;28;20412;-51
2021/07/08 08:53:21;;;;;;;;;;;18.10;99.90;;;;;;4984969;28;20007;-52
2021/07/08 08:55:48;;;;;;;;;;;18.20;99.90;;;;;;4986039;28;20376;-53
2021/07/08 08:58:21;;;;;;;;;;;18.20;99.90;;;;;;4985790;28;20049;-51
2021/07/08 09:00:56;;;;;;;;;;;18.40;99.90;;;;;;4985690;28;19991;-52
2021/07/08 09:03:26;;;;;;;;;;;18.40;99.90;;;;;;4985556;28;19998;-51
2021/07/08 09:05:57;;;;;;;;;;;18.30;99.90;;;;;;4985976;28;20022;-51
2021/07/08 09:08:24;;;;;;;;;;;18.30;99.90;;;;;;4985408;28;19986;-52
2021/07/08 09:10:50;;;;;;;;;;;18.30;99.90;;;;;;4986338;28;20002;-52
2021/07/08 09:13:16;;;;;;;;;;;18.40;99.90;;;;;;4985384;28;19987;-50
2021/07/08 09:15:41;;;;;;;;;;;18.50;99.90;;;;;;4985928;28;20041;-50
2021/07/08 09:18:08;;;;;;;;;;;18.50;99.90;;;;;;4985754;28;20416;-50
2021/07/08 09:20:36;;;;;;;;;;;18.60;99.90;;;;;;4985643;28;20468;-51
2021/07/08 09:23:10;;;;;;;;;;;18.60;99.90;;;;;;4985904;28;20014;-50
2021/07/08 09:25:36;;;;;;;;;;;18.60;99.90;;;;;;4985743;28;20419;-49
2021/07/08 09:28:13;;;;;;;;;;;18.60;99.90;;;;;;4985749;28;20049;-51
2021/07/08 09:30:38;;;;;;;;;;;18.70;99.90;;;;;;4986014;28;20526;-53
2021/07/08 09:33:25;;;;;;;;;;;18.80;99.90;;;;;;4985235;28;19991;-50
2021/07/08 09:36:02;;;;;;;;;;;18.70;99.90;;;;;;4978307;28;20037;-52
2021/07/08 09:38:30;;;;;;;;;;;18.60;99.90;;;;;;4985810;28;19986;-49
2021/07/08 09:41:06;;;;;;;;;;;18.70;99.90;;;;;;4985397;28;20097;-50
2021/07/08 09:43:33;;;;;;;;;;;18.80;99.90;;;;;;4985382;28;19993;-53
2021/07/08 09:45:59;;;;;;;;;;;18.80;99.90;;;;;;4985843;28;19986;-50
2021/07/08 09:48:24;;;;;;;;;;;18.90;99.90;;;;;;4983797;28;20371;-49
2021/07/08 09:50:50;;;;;;;;;;;19.10;99.90;;;;;;4985561;28;20000;-49
2021/07/08 09:53:19;;;;;;;;;;;19.00;99.90;;;;;;4985062;28;20052;-52
2021/07/08 09:58:30;;;;;;;;;;;19.30;99.90;;;;;;4989816;28;19986;-50
2021/07/08 10:00:55;;;;;;;;;;;19.40;99.90;;;;;;4988973;28;19994;-53
2021/07/08 10:03:22;;;;;;;;;;;19.20;99.90;;;;;;4988613;28;19995;-50
2021/07/08 10:05:47;;;;;;;;;;;19.10;99.90;;;;;;4987502;28;19991;-51
2021/07/08 10:08:13;;;;;;;;;;;19.20;99.90;;;;;;4989465;28;20013;-52
2021/07/08 10:10:39;;;;;;;;;;;19.20;99.90;;;;;;4987960;28;19994;-51
2021/07/08 10:13:06;;;;;;;;;;;19.10;99.90;;;;;;4988490;28;20044;-51
2021/07/08 10:15:34;;;;;;;;;;;19.20;99.90;;;;;;4988883;28;20508;-51
2021/07/08 10:18:00;;;;;;;;;;;19.20;99.90;;;;;;4988717;28;20052;-51
2021/07/08 10:20:26;;;;;;;;;;;19.20;99.90;;;;;;4989206;28;19997;-52
2021/07/08 10:22:51;;;;;;;;;;;19.30;99.90;;;;;;4988439;28;20010;-51
2021/07/08 10:25:17;;;;;;;;;;;19.20;99.90;;;;;;4988013;28;19995;-54
2021/07/08 10:27:44;;;;;;;;;;;19.20;99.90;;;;;;4988689;28;19986;-56
2021/07/08 10:30:10;;;;;;;;;;;19.20;99.90;;;;;;4988120;28;19994;-53
2021/07/08 10:32:36;;;;;;;;;;;19.40;99.90;;;;;;4988744;28;19995;-54
2021/07/08 10:35:02;;;;;;;;;;;19.40;99.90;;;;;;4989609;28;20026;-53
2021/07/08 10:37:29;;;;;;;;;;;19.40;99.90;;;;;;4989481;28;20337;-53
2021/07/08 10:39:55;;;;;;;;;;;19.30;99.90;;;;;;4989079;28;19991;-53
2021/07/08 10:42:42;;;;;;;;;;;19.40;99.90;;;;;;4989317;28;20010;-53
2021/07/08 10:45:07;;;;;;;;;;;19.50;99.90;;;;;;4989284;28;19990;-53
2021/07/08 10:47:34;;;;;;;;;;;19.70;99.90;;;;;;4975922;28;19998;-53
2021/07/08 10:50:01;;;;;;;;;;;19.90;99.90;;;;;;4969897;28;20042;-53
2021/07/08 10:52:40;;;;;;;;;;;19.90;99.90;;;;;;4988431;28;19998;-55
2021/07/08 10:55:06;;;;;;;;;;;19.90;99.90;;;;;;4988047;28;19999;-54
2021/07/08 10:57:36;;;;;;;;;;;19.90;99.90;;;;;;4989291;28;19991;-55
2021/07/08 11:00:02;;;;;;;;;;;20.00;99.90;;;;;;4986765;28;20026;-54
2021/07/08 11:02:47;;;;;;;;;;;20.10;99.90;;;;;;4969816;28;20010;-53
2021/07/08 11:05:13;;;;;;;;;;;20.10;99.90;;;;;;4969726;28;20797;-53
2021/07/08 11:07:46;;;;;;;;;;;20.20;99.90;;;;;;4968958;28;19991;-54
2021/07/08 11:10:12;;;;;;;;;;;20.40;99.90;;;;;;4969812;28;20361;-54
2021/07/08 11:12:40;;;;;;;;;;;20.70;99.90;;;;;;4984874;28;19991;-54
2021/07/08 11:15:06;;;;;;;;;;;20.90;99.90;;;;;;4985682;28;20041;-55
2021/07/08 11:17:42;;;;;;;;;;;20.80;99.90;;;;;;4986305;28;20556;-54
2021/07/08 11:20:25;;;;;;;;;;;20.90;99.90;;;;;;4985595;28;19999;-53
2021/07/08 11:22:51;;;;;;;;;;;20.70;99.90;;;;;;4986162;28;20014;-53
2021/07/08 11:25:16;;;;;;;;;;;20.50;99.90;;;;;;4985492;28;20525;-53
2021/07/08 11:27:43;;;;;;;;;;;20.30;99.90;;;;;;4986952;28;20003;-51
2021/07/08 11:30:15;;;;;;;;;;;20.40;99.90;;;;;;4985120;28;19999;-49
2021/07/08 11:33:06;;;;;;;;;;;20.30;99.90;;;;;;4986649;28;20001;-52
2021/07/08 11:35:33;;;;;;;;;;;20.30;99.90;;;;;;4967130;28;19995;-51
2021/07/08 11:38:04;;;;;;;;;;;20.40;99.90;;;;;;4977198;28;20053;-53
2021/07/08 11:40:33;;;;;;;;;;;20.70;99.90;;;;;;4986251;28;20049;-54
2021/07/08 11:43:01;;;;;;;;;;;20.80;99.90;;;;;;4986248;28;20010;-53
2021/07/08 11:45:27;;;;;;;;;;;20.90;99.90;;;;;;4985868;28;20435;-51
2021/07/08 11:47:54;;;;;;;;;;;21.10;99.90;;;;;;4986313;28;20374;-54
2021/07/08 11:50:26;;;;;;;;;;;21.10;99.90;;;;;;4985023;28;20014;-51
2021/07/08 11:53:09;;;;;;;;;;;21.30;99.90;;;;;;4985439;28;19998;-53
2021/07/08 11:55:36;;;;;;;;;;;21.40;99.90;;;;;;4986334;28;19998;-54
2021/07/08 11:58:04;;;;;;;;;;;21.50;99.90;;;;;;4984496;28;20592;-53
2021/07/08 12:00:31;;;;;;;;;;;21.50;99.90;;;;;;4991359;28;19997;-54
2021/07/08 12:02:58;;;;;;;;;;;21.70;99.90;;;;;;4988280;28;20018;-55
2021/07/08 12:05:24;;;;;;;;;;;21.90;99.90;;;;;;4988196;28;20078;-55
2021/07/08 12:07:55;;;;;;;;;;;21.80;99.90;;;;;;4987856;28;20575;-54
2021/07/08 12:10:24;;;;;;;;;;;21.60;99.90;;;;;;4983784;28;20042;-54
2021/07/08 12:12:56;;;;;;;;;;;21.30;99.90;;;;;;4968250;28;19999;-53
2021/07/08 12:15:22;;;;;;;;;;;20.90;99.90;;;;;;4969190;28;19991;-53
2021/07/08 12:17:59;;;;;;;;;;;20.70;99.90;;;;;;4986964;28;20045;-54
2021/07/08 12:20:25;;;;;;;;;;;20.50;99.90;;;;;;4987574;28;20475;-53
2021/07/08 12:23:08;;;;;;;;;;;20.20;99.90;;;;;;4988509;28;20068;-54
2021/07/08 12:25:34;;;;;;;;;;;20.10;99.90;;;;;;4998246;28;20650;-53
2021/07/08 12:28:00;;;;;;;;;;;20.10;99.90;;;;;;4988723;28;20851;-55
2021/07/08 12:30:29;;;;;;;;;;;20.10;99.90;;;;;;4985889;28;19999;-55
2021/07/08 12:33:04;;;;;;;;;;;20.20;99.90;;;;;;4985594;28;20129;-55
2021/07/08 12:35:40;;;;;;;;;;;20.20;99.90;;;;;;5000472;28;19991;-54
2021/07/08 12:38:06;;;;;;;;;;;20.20;99.90;;;;;;4970221;28;19995;-53
2021/07/08 12:40:32;;;;;;;;;;;20.50;99.90;;;;;;4989739;28;19991;-52
2021/07/08 12:43:03;;;;;;;;;;;20.70;99.90;;;;;;4985036;28;20007;-54
2021/07/08 12:45:29;;;;;;;;;;;20.70;99.90;;;;;;4986010;28;20002;-51
2021/07/08 12:47:55;;;;;;;;;;;20.80;99.90;;;;;;4986476;28;19990;-52
2021/07/08 12:50:25;;;;;;;;;;;20.90;99.90;;;;;;4986048;28;19995;-53
2021/07/08 12:52:51;;;;;;;;;;;20.90;99.90;;;;;;4986175;28;19998;-53
2021/07/08 12:55:32;;;;;;;;;;;21.00;99.90;;;;;;4985816;28;19991;-51
2021/07/08 12:58:01;;;;;;;;;;;21.10;99.90;;;;;;4986111;28;19995;-54
2021/07/08 13:00:34;;;;;;;;;;;21.20;99.90;;;;;;4986372;28;19990;-53
2021/07/08 13:03:00;;;;;;;;;;;20.90;99.90;;;;;;4986077;28;20589;-51
2021/07/08 13:05:42;;;;;;;;;;;21.00;99.90;;;;;;4985754;28;20014;-54
2021/07/08 13:08:11;;;;;;;;;;;20.90;99.90;;;;;;4985918;28;19987;-53
2021/07/08 13:10:38;;;;;;;;;;;20.70;99.90;;;;;;4985945;28;19991;-51
2021/07/08 13:13:04;;;;;;;;;;;20.60;99.90;;;;;;4985933;28;20105;-54
2021/07/08 13:15:32;;;;;;;;;;;20.70;99.90;;;;;;4985937;28;20081;-52
2021/07/08 13:18:03;;;;;;;;;;;20.80;99.90;;;;;;4985997;28;20444;-53
2021/07/08 13:20:29;;;;;;;;;;;20.90;99.90;;;;;;4986208;28;20049;-52
2021/07/08 13:22:55;;;;;;;;;;;21.00;99.90;;;;;;4984328;28;20381;-52
2021/07/08 13:25:22;;;;;;;;;;;21.20;99.90;;;;;;4985497;28;20014;-53
2021/07/08 13:27:49;;;;;;;;;;;21.30;99.90;;;;;;4985882;28;19998;-50
2021/07/08 13:30:28;;;;;;;;;;;21.20;99.90;;;;;;4986039;28;20543;-53
2021/07/08 13:33:00;;;;;;;;;;;21.20;99.90;;;;;;4989630;28;19994;-51
2021/07/08 13:35:52;;;;;;;;;;;21.20;99.90;;;;;;4989257;28;19995;-54
2021/07/08 13:38:32;;;;;;;;;;;21.20;99.90;;;;;;4988913;28;19991;-54
2021/07/08 13:40:59;;;;;;;;;;;21.30;99.90;;;;;;4989608;28;19993;-51
2021/07/08 13:43:50;;;;;;;;;;;21.50;99.90;;;;;;4989536;28;19986;-52
2021/07/08 13:46:36;;;;;;;;;;;21.60;99.90;;;;;;4988869;28;20006;-51
2021/07/08 13:49:11;;;;;;;;;;;21.60;99.90;;;;;;4989147;28;19990;-51
2021/07/08 13:51:42;;;;;;;;;;;21.60;99.90;;;;;;4989182;28;20408;-52
2021/07/08 13:54:08;;;;;;;;;;;21.40;99.90;;;;;;4988760;28;20014;-53
2021/07/08 13:56:34;;;;;;;;;;;21.60;99.90;;;;;;4989242;28;19986;-52
2021/07/08 13:59:03;;;;;;;;;;;21.60;99.90;;;;;;4988912;28;20464;-50
2021/07/08 14:01:28;;;;;;;;;;;21.50;99.90;;;;;;4988983;28;20093;-54
2021/07/08 14:03:54;;;;;;;;;;;21.50;99.90;;;;;;4987706;28;20085;-53
2021/07/08 14:06:19;;;;;;;;;;;21.30;99.90;;;;;;4986183;28;20045;-51
2021/07/08 14:08:45;;;;;;;;;;;21.40;99.90;;;;;;4985586;28;20022;-54
2021/07/08 14:11:12;;;;;;;;;;;21.50;99.90;;;;;;5005717;28;19991;-54
2021/07/08 14:13:39;;;;;;;;;;;21.70;99.90;;;;;;4986682;28;19993;-54
2021/07/08 14:16:05;;;;;;;;;;;21.80;99.90;;;;;;4984733;28;20277;-54
2021/07/08 14:18:31;;;;;;;;;;;21.80;99.90;;;;;;4991846;28;19991;-55
2021/07/08 14:20:56;;;;;;;;;;;21.90;99.90;;;;;;4988276;28;20017;-55
2021/07/08 14:23:22;;;;;;;;;;;21.90;99.90;;;;;;4973606;28;20041;-54